createdAt,value
2019-05-18T00:04:54.957Z,3.60
2019-05-18T00:07:28.209Z,4.07
2019-05-18T00:12:55.055Z,4.53
2019-05-18T00:15:30.027Z,3.90
2019-05-18T00:20:51.780Z,3.47
2019-05-18T00:23:29.994Z,3.70
2019-05-18T00:29:12.142Z,4.13
2019-05-18T00:31:47.974Z,4.47
2019-05-18T00:40:24.199Z,3.80
2019-05-18T00:43:21.550Z,3.87
2019-05-18T00:45:57.996Z,3.10
2019-05-18T00:48:30.936Z,2.97
2019-05-18T00:51:03.750Z,3.83
2019-05-18T00:53:37.736Z,3.50
2019-05-18T00:56:09.972Z,3.87
2019-05-18T00:58:48.962Z,4.17
2019-05-18T01:01:23.562Z,4.27
2019-05-18T01:03:54.602Z,3.60
2019-05-18T01:06:26.437Z,4.37
2019-05-18T01:09:00.483Z,4.43
2019-05-18T01:11:33.448Z,4.17
2019-05-18T01:17:18.993Z,4.30
2019-05-18T01:19:52.214Z,4.33
2019-05-18T01:22:25.857Z,4.50
2019-05-18T01:25:16.846Z,4.67
2019-05-18T01:27:52.220Z,4.40
2019-05-18T01:30:25.754Z,3.80
2019-05-18T01:33:18.421Z,4.57
2019-05-18T01:35:51.573Z,4.57
2019-05-18T01:38:23.899Z,4.97
2019-05-18T01:44:05.553Z,4.97
2019-05-18T01:46:38.256Z,4.67
2019-05-18T01:49:10.881Z,5.07
2019-05-18T01:51:43.640Z,5.20
2019-05-18T01:54:26.616Z,4.53
2019-05-18T01:57:18.700Z,4.27
2019-05-18T01:59:51.062Z,4.10
2019-05-18T02:02:23.982Z,4.27
2019-05-18T02:07:55.241Z,4.53
2019-05-18T02:10:27.678Z,4.53
2019-05-18T02:12:59.813Z,4.80
2019-05-18T02:15:31.808Z,4.70
2019-05-18T02:21:03.709Z,4.20
2019-05-18T02:23:37.269Z,4.50
2019-05-18T02:26:30.336Z,4.70
2019-05-18T02:29:02.709Z,4.40
2019-05-18T02:34:51.414Z,4.00
2019-05-18T02:37:25.269Z,4.70
2019-05-18T02:39:57.556Z,4.20
2019-05-18T02:42:30.923Z,4.17
2019-05-18T02:45:09.576Z,4.10
2019-05-18T02:48:02.222Z,4.30
2019-05-18T02:50:35.044Z,4.10
2019-05-18T02:53:07.289Z,3.80
2019-05-18T02:55:40.040Z,3.70
2019-05-18T02:58:13.498Z,3.30
2019-05-18T03:03:35.604Z,3.20
2019-05-18T03:06:09.095Z,3.20
2019-05-18T03:08:44.157Z,3.30
2019-05-18T03:11:21.578Z,3.13
2019-05-18T03:13:55.288Z,2.93
2019-05-18T03:17:22.675Z,3.37
2019-05-18T03:19:57.112Z,3.17
2019-05-18T03:22:30.538Z,3.37
2019-05-18T03:25:04.892Z,3.47
2019-05-18T03:27:37.115Z,3.70
2019-05-18T03:30:16.362Z,4.00
2019-05-18T03:32:50.776Z,4.63
2019-05-18T03:35:23.285Z,4.30
2019-05-18T03:37:55.610Z,4.20
2019-05-18T03:40:48.770Z,4.77
2019-05-18T03:43:21.255Z,5.30
2019-05-18T03:45:54.329Z,5.63
2019-05-18T03:48:26.207Z,6.40
2019-05-18T03:51:00.229Z,6.83
2019-05-18T03:53:32.831Z,5.67
2019-05-18T03:56:06.089Z,7.40
2019-05-18T03:58:39.023Z,7.47
2019-05-18T04:01:11.653Z,7.63
2019-05-18T04:03:43.728Z,7.50
2019-05-18T04:09:18.858Z,6.17
2019-05-18T04:11:52.953Z,6.50
2019-05-18T04:14:25.311Z,5.50
2019-05-18T04:17:01.861Z,4.90
2019-05-18T04:19:45.617Z,5.00
2019-05-18T04:22:11.497Z,4.87
2019-05-18T04:24:44.213Z,6.03
2019-05-18T04:27:18.138Z,7.03
2019-05-18T04:29:51.914Z,6.80
2019-05-18T04:32:26.751Z,6.80
2019-05-18T04:34:59.926Z,5.50
2019-05-18T04:37:33.782Z,5.43
2019-05-18T04:40:08.463Z,5.50
2019-05-18T04:42:41.910Z,5.50
2019-05-18T04:45:16.841Z,5.47
2019-05-18T04:47:51.238Z,5.93
2019-05-18T04:50:25.609Z,6.07
2019-05-18T04:52:58.704Z,7.47
2019-05-18T04:55:33.125Z,9.73
2019-05-18T04:58:06.850Z,11.90
2019-05-18T05:00:40.196Z,10.27
2019-05-18T05:03:33.412Z,13.67
2019-05-18T05:06:07.940Z,23.10
2019-05-18T05:08:41.151Z,11.07
2019-05-18T05:11:15.653Z,10.73
2019-05-18T05:13:49.433Z,10.33
2019-05-18T05:16:42.532Z,11.47
2019-05-18T05:19:16.214Z,12.73
2019-05-18T05:21:51.532Z,9.43
2019-05-18T05:24:25.717Z,10.67
2019-05-18T05:27:19.381Z,10.40
2019-05-18T05:29:53.292Z,8.00
2019-05-18T05:32:45.959Z,8.57
2019-05-18T05:35:20.077Z,7.77
2019-05-18T05:37:52.482Z,44.70
2019-05-18T05:40:25.519Z,59.47
2019-05-18T05:43:00.752Z,116.07
2019-05-18T05:45:33.997Z,100.17
2019-05-18T05:48:08.083Z,132.17
2019-05-18T05:50:40.929Z,196.33
2019-05-18T05:53:17.788Z,182.80
2019-05-18T05:55:49.907Z,151.33
2019-05-18T05:58:22.942Z,91.97
2019-05-18T06:00:55.622Z,60.17
2019-05-18T06:03:29.929Z,28.93
2019-05-18T06:06:03.292Z,14.73
2019-05-18T06:08:36.169Z,15.80
2019-05-18T06:11:09.099Z,11.97
2019-05-18T06:13:43.485Z,14.30
2019-05-18T06:16:16.520Z,11.73
2019-05-18T06:18:50.164Z,12.57
2019-05-18T06:21:27.149Z,12.63
2019-05-18T06:24:08.693Z,11.77
2019-05-18T06:26:43.765Z,10.97
2019-05-18T06:29:17.971Z,8.47
2019-05-18T06:32:06.147Z,6.43
2019-05-18T06:34:43.033Z,6.37
2019-05-18T06:40:14.877Z,4.83
2019-05-18T06:42:49.809Z,7.73
